sensor_id;sensor_type;location;lat;lon;timestamp;temperature;humidity
19248;DHT22;9758;48.640;8.148;2023-06-24T00:02:08;21.70;42.00
19248;DHT22;9758;48.640;8.148;2023-06-24T00:04:35;21.70;42.00
19248;DHT22;9758;48.640;8.148;2023-06-24T00:07:01;21.60;42.00
19248;DHT22;9758;48.640;8.148;2023-06-24T00:09:29;21.60;42.00
19248;DHT22;9758;48.640;8.148;2023-06-24T00:11:57;21.60;42.10
19248;DHT22;9758;48.640;8.148;2023-06-24T00:14:25;21.60;42.10
19248;DHT22;9758;48.640;8.148;2023-06-24T00:16:53;21.50;42.10
19248;DHT22;9758;48.640;8.148;2023-06-24T00:19:21;21.50;42.20
19248;DHT22;9758;48.640;8.148;2023-06-24T00:21:48;21.50;42.10
19248;DHT22;9758;48.640;8.148;2023-06-24T00:24:17;21.50;42.20
19248;DHT22;9758;48.640;8.148;2023-06-24T00:26:45;21.50;42.20
19248;DHT22;9758;48.640;8.148;2023-06-24T00:29:13;21.50;42.20
19248;DHT22;9758;48.640;8.148;2023-06-24T00:31:40;21.40;42.20
19248;DHT22;9758;48.640;8.148;2023-06-24T00:34:07;21.40;42.20
19248;DHT22;9758;48.640;8.148;2023-06-24T00:36:34;21.40;42.30
19248;DHT22;9758;48.640;8.148;2023-06-24T00:39:02;21.40;42.20
19248;DHT22;9758;48.640;8.148;2023-06-24T00:41:29;21.40;42.30
19248;DHT22;9758;48.640;8.148;2023-06-24T00:43:56;21.30;42.50
19248;DHT22;9758;48.640;8.148;2023-06-24T00:46:24;21.30;42.30
19248;DHT22;9758;48.640;8.148;2023-06-24T00:48:51;21.30;42.30
19248;DHT22;9758;48.640;8.148;2023-06-24T00:51:18;21.30;42.40
19248;DHT22;9758;48.640;8.148;2023-06-24T00:53:46;21.30;42.40
19248;DHT22;9758;48.640;8.148;2023-06-24T00:56:13;21.20;42.30
19248;DHT22;9758;48.640;8.148;2023-06-24T00:58:44;21.30;42.40
19248;DHT22;9758;48.640;8.148;2023-06-24T01:01:12;21.30;42.30
19248;DHT22;9758;48.640;8.148;2023-06-24T01:03:41;21.30;42.40
19248;DHT22;9758;48.640;8.148;2023-06-24T01:06:08;21.30;42.40
19248;DHT22;9758;48.640;8.148;2023-06-24T01:08:35;21.20;42.30
19248;DHT22;9758;48.640;8.148;2023-06-24T01:11:02;21.20;42.40
19248;DHT22;9758;48.640;8.148;2023-06-24T01:13:28;21.20;42.40
19248;DHT22;9758;48.640;8.148;2023-06-24T01:15:57;21.20;42.50
19248;DHT22;9758;48.640;8.148;2023-06-24T01:18:32;21.20;42.40
19248;DHT22;9758;48.640;8.148;2023-06-24T01:21:04;21.20;42.50
19248;DHT22;9758;48.640;8.148;2023-06-24T01:23:49;21.10;42.50
19248;DHT22;9758;48.640;8.148;2023-06-24T01:26:44;21.10;42.60
19248;DHT22;9758;48.640;8.148;2023-06-24T01:29:35;21.00;42.60
19248;DHT22;9758;48.640;8.148;2023-06-24T01:32:14;21.00;42.90
19248;DHT22;9758;48.640;8.148;2023-06-24T01:34:48;20.90;42.80
19248;DHT22;9758;48.640;8.148;2023-06-24T01:37:19;20.90;42.80
19248;DHT22;9758;48.640;8.148;2023-06-24T01:39:49;20.90;42.90
19248;DHT22;9758;48.640;8.148;2023-06-24T01:42:17;20.90;43.00
19248;DHT22;9758;48.640;8.148;2023-06-24T01:44:47;20.90;43.00
19248;DHT22;9758;48.640;8.148;2023-06-24T01:47:20;20.80;43.00
19248;DHT22;9758;48.640;8.148;2023-06-24T01:49:48;20.80;43.00
19248;DHT22;9758;48.640;8.148;2023-06-24T01:52:19;20.80;43.00
19248;DHT22;9758;48.640;8.148;2023-06-24T01:54:48;20.80;43.00
19248;DHT22;9758;48.640;8.148;2023-06-24T01:57:17;20.80;43.00
19248;DHT22;9758;48.640;8.148;2023-06-24T01:59:45;20.80;42.90
19248;DHT22;9758;48.640;8.148;2023-06-24T02:02:13;20.80;42.90
19248;DHT22;9758;48.640;8.148;2023-06-24T02:04:42;20.90;42.90
19248;DHT22;9758;48.640;8.148;2023-06-24T02:07:11;20.90;42.80
19248;DHT22;9758;48.640;8.148;2023-06-24T02:09:38;20.90;42.80
19248;DHT22;9758;48.640;8.148;2023-06-24T02:12:06;20.90;42.80
19248;DHT22;9758;48.640;8.148;2023-06-24T02:14:35;20.90;42.70
19248;DHT22;9758;48.640;8.148;2023-06-24T02:17:05;20.90;42.70
19248;DHT22;9758;48.640;8.148;2023-06-24T02:19:33;20.90;42.70
19248;DHT22;9758;48.640;8.148;2023-06-24T02:22:02;20.90;42.80
19248;DHT22;9758;48.640;8.148;2023-06-24T02:24:30;20.90;42.80
19248;DHT22;9758;48.640;8.148;2023-06-24T02:26:57;20.90;42.80
19248;DHT22;9758;48.640;8.148;2023-06-24T02:29:26;20.90;42.80
19248;DHT22;9758;48.640;8.148;2023-06-24T02:31:53;20.90;42.80
19248;DHT22;9758;48.640;8.148;2023-06-24T02:34:22;20.90;42.90
19248;DHT22;9758;48.640;8.148;2023-06-24T02:36:49;20.90;42.80
19248;DHT22;9758;48.640;8.148;2023-06-24T02:39:17;20.80;42.80
19248;DHT22;9758;48.640;8.148;2023-06-24T02:41:45;20.80;42.80
19248;DHT22;9758;48.640;8.148;2023-06-24T02:44:13;20.80;42.80
19248;DHT22;9758;48.640;8.148;2023-06-24T02:46:40;20.80;42.90
19248;DHT22;9758;48.640;8.148;2023-06-24T02:49:09;20.80;42.90
19248;DHT22;9758;48.640;8.148;2023-06-24T02:51:38;20.80;42.90
19248;DHT22;9758;48.640;8.148;2023-06-24T02:54:05;20.70;43.00
19248;DHT22;9758;48.640;8.148;2023-06-24T02:56:34;20.70;42.90
19248;DHT22;9758;48.640;8.148;2023-06-24T02:59:01;20.70;43.00
19248;DHT22;9758;48.640;8.148;2023-06-24T03:01:29;20.70;43.00
19248;DHT22;9758;48.640;8.148;2023-06-24T03:03:56;20.70;43.00
19248;DHT22;9758;48.640;8.148;2023-06-24T03:06:23;20.60;43.00
19248;DHT22;9758;48.640;8.148;2023-06-24T03:08:52;20.60;43.00
19248;DHT22;9758;48.640;8.148;2023-06-24T03:11:18;20.70;43.10
19248;DHT22;9758;48.640;8.148;2023-06-24T03:13:46;20.60;43.20
19248;DHT22;9758;48.640;8.148;2023-06-24T03:16:13;20.60;43.20
19248;DHT22;9758;48.640;8.148;2023-06-24T03:18:41;20.60;43.20
19248;DHT22;9758;48.640;8.148;2023-06-24T03:21:08;20.50;43.10
19248;DHT22;9758;48.640;8.148;2023-06-24T03:23:35;20.60;43.20
19248;DHT22;9758;48.640;8.148;2023-06-24T03:26:02;20.60;43.30
19248;DHT22;9758;48.640;8.148;2023-06-24T03:28:29;20.50;43.30
19248;DHT22;9758;48.640;8.148;2023-06-24T03:30:58;20.50;43.30
19248;DHT22;9758;48.640;8.148;2023-06-24T03:33:25;20.50;43.30
19248;DHT22;9758;48.640;8.148;2023-06-24T03:35:52;20.50;43.30
19248;DHT22;9758;48.640;8.148;2023-06-24T03:38:19;20.50;43.30
19248;DHT22;9758;48.640;8.148;2023-06-24T03:40:46;20.50;43.30
19248;DHT22;9758;48.640;8.148;2023-06-24T03:43:13;20.50;43.30
19248;DHT22;9758;48.640;8.148;2023-06-24T03:45:40;20.50;43.30
19248;DHT22;9758;48.640;8.148;2023-06-24T03:48:08;20.50;43.30
19248;DHT22;9758;48.640;8.148;2023-06-24T03:50:34;20.50;43.30
19248;DHT22;9758;48.640;8.148;2023-06-24T03:53:02;20.50;43.30
19248;DHT22;9758;48.640;8.148;2023-06-24T03:55:28;20.50;43.30
19248;DHT22;9758;48.640;8.148;2023-06-24T03:57:55;20.50;43.30
19248;DHT22;9758;48.640;8.148;2023-06-24T04:00:22;20.50;43.30
19248;DHT22;9758;48.640;8.148;2023-06-24T04:02:48;20.50;43.30
19248;DHT22;9758;48.640;8.148;2023-06-24T04:05:19;20.50;43.40
19248;DHT22;9758;48.640;8.148;2023-06-24T04:07:46;20.50;43.40
19248;DHT22;9758;48.640;8.148;2023-06-24T04:10:16;20.40;43.40
19248;DHT22;9758;48.640;8.148;2023-06-24T04:12:43;20.50;43.60
19248;DHT22;9758;48.640;8.148;2023-06-24T04:15:11;20.40;44.10
19248;DHT22;9758;48.640;8.148;2023-06-24T04:17:37;20.50;43.60
19248;DHT22;9758;48.640;8.148;2023-06-24T04:20:05;20.40;43.60
19248;DHT22;9758;48.640;8.148;2023-06-24T04:22:36;20.50;43.60
19248;DHT22;9758;48.640;8.148;2023-06-24T04:25:03;20.50;43.60
19248;DHT22;9758;48.640;8.148;2023-06-24T04:27:31;20.50;43.60
19248;DHT22;9758;48.640;8.148;2023-06-24T04:29:58;20.50;43.70
19248;DHT22;9758;48.640;8.148;2023-06-24T04:32:25;20.50;43.60
19248;DHT22;9758;48.640;8.148;2023-06-24T04:34:51;20.50;43.60
19248;DHT22;9758;48.640;8.148;2023-06-24T04:37:18;20.50;43.70
19248;DHT22;9758;48.640;8.148;2023-06-24T04:39:47;20.50;43.60
19248;DHT22;9758;48.640;8.148;2023-06-24T04:42:15;20.60;43.70
19248;DHT22;9758;48.640;8.148;2023-06-24T04:44:41;20.60;43.70
19248;DHT22;9758;48.640;8.148;2023-06-24T04:47:08;20.60;43.60
19248;DHT22;9758;48.640;8.148;2023-06-24T04:56:21;20.70;43.70
19248;DHT22;9758;48.640;8.148;2023-06-24T04:58:47;20.60;43.60
19248;DHT22;9758;48.640;8.148;2023-06-24T05:01:14;20.70;43.70
19248;DHT22;9758;48.640;8.148;2023-06-24T05:03:41;20.70;43.70
19248;DHT22;9758;48.640;8.148;2023-06-24T05:06:07;20.70;43.70
19248;DHT22;9758;48.640;8.148;2023-06-24T05:08:34;20.70;43.70
19248;DHT22;9758;48.640;8.148;2023-06-24T05:11:01;20.70;43.70
19248;DHT22;9758;48.640;8.148;2023-06-24T05:13:29;20.70;43.80
19248;DHT22;9758;48.640;8.148;2023-06-24T05:15:55;20.70;43.70
19248;DHT22;9758;48.640;8.148;2023-06-24T05:18:23;20.80;43.80
19248;DHT22;9758;48.640;8.148;2023-06-24T05:20:50;20.90;43.90
19248;DHT22;9758;48.640;8.148;2023-06-24T05:23:16;20.80;43.80
19248;DHT22;9758;48.640;8.148;2023-06-24T05:25:43;20.90;43.90
19248;DHT22;9758;48.640;8.148;2023-06-24T05:28:10;21.00;43.90
19248;DHT22;9758;48.640;8.148;2023-06-24T05:30:38;21.00;43.90
19248;DHT22;9758;48.640;8.148;2023-06-24T05:33:04;21.00;43.90
19248;DHT22;9758;48.640;8.148;2023-06-24T05:35:31;21.10;44.00
19248;DHT22;9758;48.640;8.148;2023-06-24T05:37:58;21.10;44.00
19248;DHT22;9758;48.640;8.148;2023-06-24T05:40:24;21.20;44.70
19248;DHT22;9758;48.640;8.148;2023-06-24T05:42:51;21.20;44.00
19248;DHT22;9758;48.640;8.148;2023-06-24T05:45:18;21.30;44.10
19248;DHT22;9758;48.640;8.148;2023-06-24T05:47:46;21.40;44.10
19248;DHT22;9758;48.640;8.148;2023-06-24T05:50:13;21.40;44.10
19248;DHT22;9758;48.640;8.148;2023-06-24T05:52:40;21.50;44.10
19248;DHT22;9758;48.640;8.148;2023-06-24T05:55:07;21.60;44.10
19248;DHT22;9758;48.640;8.148;2023-06-24T05:57:34;21.60;44.20
19248;DHT22;9758;48.640;8.148;2023-06-24T06:00:02;21.70;44.20
19248;DHT22;9758;48.640;8.148;2023-06-24T06:02:42;21.80;44.10
19248;DHT22;9758;48.640;8.148;2023-06-24T06:05:10;21.80;44.10
19248;DHT22;9758;48.640;8.148;2023-06-24T06:07:37;21.90;44.00
19248;DHT22;9758;48.640;8.148;2023-06-24T06:10:05;22.00;44.00
19248;DHT22;9758;48.640;8.148;2023-06-24T06:12:32;22.10;44.10
19248;DHT22;9758;48.640;8.148;2023-06-24T06:14:59;22.10;44.20
19248;DHT22;9758;48.640;8.148;2023-06-24T06:17:26;22.10;44.10
19248;DHT22;9758;48.640;8.148;2023-06-24T06:19:52;22.10;44.20
19248;DHT22;9758;48.640;8.148;2023-06-24T06:22:21;22.10;44.20
19248;DHT22;9758;48.640;8.148;2023-06-24T06:24:48;22.20;44.30
19248;DHT22;9758;48.640;8.148;2023-06-24T06:27:15;22.20;44.30
19248;DHT22;9758;48.640;8.148;2023-06-24T06:29:41;22.20;44.30
19248;DHT22;9758;48.640;8.148;2023-06-24T06:32:08;22.20;44.30
19248;DHT22;9758;48.640;8.148;2023-06-24T06:34:35;22.30;44.40
19248;DHT22;9758;48.640;8.148;2023-06-24T06:37:02;22.30;44.40
19248;DHT22;9758;48.640;8.148;2023-06-24T06:39:30;22.40;44.50
19248;DHT22;9758;48.640;8.148;2023-06-24T06:41:57;22.40;44.30
19248;DHT22;9758;48.640;8.148;2023-06-24T06:44:23;22.50;44.50
19248;DHT22;9758;48.640;8.148;2023-06-24T06:46:50;22.60;44.50
19248;DHT22;9758;48.640;8.148;2023-06-24T06:49:17;22.60;44.50
19248;DHT22;9758;48.640;8.148;2023-06-24T06:51:44;22.70;44.50
19248;DHT22;9758;48.640;8.148;2023-06-24T06:54:10;22.70;44.40
19248;DHT22;9758;48.640;8.148;2023-06-24T06:56:38;22.70;44.40
19248;DHT22;9758;48.640;8.148;2023-06-24T06:59:05;22.80;44.30
19248;DHT22;9758;48.640;8.148;2023-06-24T07:01:32;22.90;44.60
19248;DHT22;9758;48.640;8.148;2023-06-24T07:04:10;23.00;45.10
19248;DHT22;9758;48.640;8.148;2023-06-24T07:06:37;23.00;44.40
19248;DHT22;9758;48.640;8.148;2023-06-24T07:09:03;23.10;44.50
19248;DHT22;9758;48.640;8.148;2023-06-24T07:11:30;23.20;44.40
19248;DHT22;9758;48.640;8.148;2023-06-24T07:13:58;23.20;44.30
19248;DHT22;9758;48.640;8.148;2023-06-24T07:16:25;23.20;44.20
19248;DHT22;9758;48.640;8.148;2023-06-24T07:18:51;23.30;44.30
19248;DHT22;9758;48.640;8.148;2023-06-24T07:21:18;23.30;44.20
19248;DHT22;9758;48.640;8.148;2023-06-24T07:23:45;23.30;44.20
19248;DHT22;9758;48.640;8.148;2023-06-24T07:26:11;23.40;44.20
19248;DHT22;9758;48.640;8.148;2023-06-24T07:28:38;23.50;44.10
19248;DHT22;9758;48.640;8.148;2023-06-24T07:31:06;23.60;44.10
19248;DHT22;9758;48.640;8.148;2023-06-24T07:33:33;23.70;44.00
19248;DHT22;9758;48.640;8.148;2023-06-24T07:36:00;23.80;44.00
19248;DHT22;9758;48.640;8.148;2023-06-24T07:38:28;23.90;43.90
19248;DHT22;9758;48.640;8.148;2023-06-24T07:40:56;23.90;43.70
19248;DHT22;9758;48.640;8.148;2023-06-24T07:43:23;24.00;43.70
19248;DHT22;9758;48.640;8.148;2023-06-24T07:45:49;24.10;43.70
19248;DHT22;9758;48.640;8.148;2023-06-24T07:48:17;24.20;43.70
19248;DHT22;9758;48.640;8.148;2023-06-24T07:50:44;24.20;43.60
19248;DHT22;9758;48.640;8.148;2023-06-24T07:53:11;24.30;43.50
19248;DHT22;9758;48.640;8.148;2023-06-24T07:55:37;24.40;43.50
19248;DHT22;9758;48.640;8.148;2023-06-24T07:58:05;24.40;43.40
19248;DHT22;9758;48.640;8.148;2023-06-24T08:00:31;24.50;43.40
19248;DHT22;9758;48.640;8.148;2023-06-24T08:02:58;24.50;43.30
19248;DHT22;9758;48.640;8.148;2023-06-24T08:05:26;24.50;43.30
19248;DHT22;9758;48.640;8.148;2023-06-24T08:07:53;24.60;43.40
19248;DHT22;9758;48.640;8.148;2023-06-24T08:10:20;24.60;43.30
19248;DHT22;9758;48.640;8.148;2023-06-24T08:12:47;24.70;43.30
19248;DHT22;9758;48.640;8.148;2023-06-24T08:15:13;24.80;43.20
19248;DHT22;9758;48.640;8.148;2023-06-24T08:17:40;24.80;43.20
19248;DHT22;9758;48.640;8.148;2023-06-24T08:20:07;24.90;43.20
19248;DHT22;9758;48.640;8.148;2023-06-24T08:22:35;24.90;43.00
19248;DHT22;9758;48.640;8.148;2023-06-24T08:25:03;24.90;43.10
19248;DHT22;9758;48.640;8.148;2023-06-24T08:27:29;24.90;43.00
19248;DHT22;9758;48.640;8.148;2023-06-24T08:29:56;25.00;43.00
19248;DHT22;9758;48.640;8.148;2023-06-24T08:32:23;24.90;42.90
19248;DHT22;9758;48.640;8.148;2023-06-24T08:34:50;24.90;43.00
19248;DHT22;9758;48.640;8.148;2023-06-24T08:37:16;24.90;42.90
19248;DHT22;9758;48.640;8.148;2023-06-24T08:39:44;25.00;43.00
19248;DHT22;9758;48.640;8.148;2023-06-24T08:42:11;25.00;42.90
19248;DHT22;9758;48.640;8.148;2023-06-24T08:44:38;25.00;42.90
19248;DHT22;9758;48.640;8.148;2023-06-24T08:47:05;25.00;43.00
19248;DHT22;9758;48.640;8.148;2023-06-24T08:49:33;25.00;43.00
19248;DHT22;9758;48.640;8.148;2023-06-24T08:52:02;25.00;43.00
19248;DHT22;9758;48.640;8.148;2023-06-24T08:54:30;25.10;43.10
19248;DHT22;9758;48.640;8.148;2023-06-24T08:57:02;25.10;43.00
19248;DHT22;9758;48.640;8.148;2023-06-24T08:59:30;25.20;43.10
19248;DHT22;9758;48.640;8.148;2023-06-24T09:01:57;25.20;43.00
19248;DHT22;9758;48.640;8.148;2023-06-24T09:04:24;25.20;42.90
19248;DHT22;9758;48.640;8.148;2023-06-24T09:06:50;25.20;43.00
19248;DHT22;9758;48.640;8.148;2023-06-24T09:09:18;25.30;43.00
19248;DHT22;9758;48.640;8.148;2023-06-24T09:11:51;25.40;43.10
19248;DHT22;9758;48.640;8.148;2023-06-24T09:14:19;25.40;43.10
19248;DHT22;9758;48.640;8.148;2023-06-24T09:16:51;25.50;43.00
19248;DHT22;9758;48.640;8.148;2023-06-24T09:19:20;25.60;43.00
19248;DHT22;9758;48.640;8.148;2023-06-24T09:21:47;25.70;43.00
19248;DHT22;9758;48.640;8.148;2023-06-24T09:24:14;25.70;42.90
19248;DHT22;9758;48.640;8.148;2023-06-24T09:26:43;25.70;43.40
19248;DHT22;9758;48.640;8.148;2023-06-24T09:29:10;25.80;42.90
19248;DHT22;9758;48.640;8.148;2023-06-24T09:31:47;25.90;42.90
19248;DHT22;9758;48.640;8.148;2023-06-24T09:34:14;26.00;42.90
19248;DHT22;9758;48.640;8.148;2023-06-24T09:36:43;26.10;42.80
19248;DHT22;9758;48.640;8.148;2023-06-24T09:39:10;26.20;42.70
19248;DHT22;9758;48.640;8.148;2023-06-24T09:41:40;26.30;42.60
19248;DHT22;9758;48.640;8.148;2023-06-24T09:44:08;26.30;42.50
19248;DHT22;9758;48.640;8.148;2023-06-24T09:46:37;26.30;42.50
19248;DHT22;9758;48.640;8.148;2023-06-24T09:49:05;26.40;42.50
19248;DHT22;9758;48.640;8.148;2023-06-24T09:51:35;26.40;42.50
19248;DHT22;9758;48.640;8.148;2023-06-24T09:54:05;26.50;42.40
19248;DHT22;9758;48.640;8.148;2023-06-24T09:56:33;26.50;42.40
19248;DHT22;9758;48.640;8.148;2023-06-24T09:59:03;26.50;42.40
19248;DHT22;9758;48.640;8.148;2023-06-24T10:01:31;26.60;42.40
19248;DHT22;9758;48.640;8.148;2023-06-24T10:03:58;26.70;42.50
19248;DHT22;9758;48.640;8.148;2023-06-24T10:06:27;26.80;42.40
19248;DHT22;9758;48.640;8.148;2023-06-24T10:08:54;26.90;42.40
19248;DHT22;9758;48.640;8.148;2023-06-24T10:11:21;26.90;42.20
19248;DHT22;9758;48.640;8.148;2023-06-24T10:13:48;27.00;42.30
19248;DHT22;9758;48.640;8.148;2023-06-24T10:16:15;27.10;42.00
19248;DHT22;9758;48.640;8.148;2023-06-24T10:18:43;27.20;42.10
19248;DHT22;9758;48.640;8.148;2023-06-24T10:21:11;27.30;41.90
19248;DHT22;9758;48.640;8.148;2023-06-24T10:23:51;27.40;41.80
19248;DHT22;9758;48.640;8.148;2023-06-24T10:26:23;27.40;41.80
19248;DHT22;9758;48.640;8.148;2023-06-24T10:29:11;27.50;41.60
19248;DHT22;9758;48.640;8.148;2023-06-24T10:31:56;27.50;41.50
19248;DHT22;9758;48.640;8.148;2023-06-24T10:34:32;27.60;41.60
19248;DHT22;9758;48.640;8.148;2023-06-24T10:37:00;27.70;41.50
19248;DHT22;9758;48.640;8.148;2023-06-24T10:39:47;27.70;41.30
19248;DHT22;9758;48.640;8.148;2023-06-24T10:42:33;27.80;41.10
19248;DHT22;9758;48.640;8.148;2023-06-24T10:45:13;27.80;41.10
19248;DHT22;9758;48.640;8.148;2023-06-24T10:47:41;27.90;41.10
19248;DHT22;9758;48.640;8.148;2023-06-24T10:50:11;28.00;41.10
19248;DHT22;9758;48.640;8.148;2023-06-24T10:52:39;28.00;41.00
19248;DHT22;9758;48.640;8.148;2023-06-24T10:55:08;28.00;40.90
19248;DHT22;9758;48.640;8.148;2023-06-24T10:57:35;28.00;40.70
19248;DHT22;9758;48.640;8.148;2023-06-24T11:00:04;28.00;40.90
19248;DHT22;9758;48.640;8.148;2023-06-24T11:02:31;28.00;40.70
19248;DHT22;9758;48.640;8.148;2023-06-24T11:04:58;28.10;40.90
19248;DHT22;9758;48.640;8.148;2023-06-24T11:07:27;28.20;40.90
19248;DHT22;9758;48.640;8.148;2023-06-24T11:09:55;28.20;40.60
19248;DHT22;9758;48.640;8.148;2023-06-24T11:12:25;28.30;40.50
19248;DHT22;9758;48.640;8.148;2023-06-24T11:14:55;28.30;38.80
19248;DHT22;9758;48.640;8.148;2023-06-24T11:17:23;28.30;40.20
19248;DHT22;9758;48.640;8.148;2023-06-24T11:19:52;28.40;39.90
19248;DHT22;9758;48.640;8.148;2023-06-24T11:22:19;28.40;40.10
19248;DHT22;9758;48.640;8.148;2023-06-24T11:24:45;28.50;40.10
19248;DHT22;9758;48.640;8.148;2023-06-24T11:27:12;28.50;39.80
19248;DHT22;9758;48.640;8.148;2023-06-24T11:29:40;28.60;39.50
19248;DHT22;9758;48.640;8.148;2023-06-24T11:32:08;28.70;39.50
19248;DHT22;9758;48.640;8.148;2023-06-24T11:34:35;28.70;39.60
19248;DHT22;9758;48.640;8.148;2023-06-24T11:37:10;28.70;39.50
19248;DHT22;9758;48.640;8.148;2023-06-24T11:39:37;28.70;39.50
19248;DHT22;9758;48.640;8.148;2023-06-24T11:42:06;28.80;39.50
19248;DHT22;9758;48.640;8.148;2023-06-24T11:44:33;28.90;39.40
19248;DHT22;9758;48.640;8.148;2023-06-24T11:47:05;29.00;39.30
19248;DHT22;9758;48.640;8.148;2023-06-24T11:49:32;29.00;39.40
19248;DHT22;9758;48.640;8.148;2023-06-24T11:51:59;29.10;38.80
19248;DHT22;9758;48.640;8.148;2023-06-24T11:54:25;29.20;38.70
19248;DHT22;9758;48.640;8.148;2023-06-24T11:56:53;29.10;38.40
19248;DHT22;9758;48.640;8.148;2023-06-24T11:59:21;29.10;38.80
19248;DHT22;9758;48.640;8.148;2023-06-24T12:01:56;29.10;38.70
19248;DHT22;9758;48.640;8.148;2023-06-24T12:04:29;29.10;38.50
19248;DHT22;9758;48.640;8.148;2023-06-24T12:06:56;29.10;38.70
19248;DHT22;9758;48.640;8.148;2023-06-24T12:09:23;29.20;38.70
19248;DHT22;9758;48.640;8.148;2023-06-24T12:11:50;29.20;38.80
19248;DHT22;9758;48.640;8.148;2023-06-24T12:14:17;29.30;38.70
19248;DHT22;9758;48.640;8.148;2023-06-24T12:16:44;29.40;38.40
19248;DHT22;9758;48.640;8.148;2023-06-24T12:19:11;29.40;38.60
19248;DHT22;9758;48.640;8.148;2023-06-24T12:21:39;29.50;38.50
19248;DHT22;9758;48.640;8.148;2023-06-24T12:24:06;29.60;38.60
19248;DHT22;9758;48.640;8.148;2023-06-24T12:26:33;29.70;38.40
19248;DHT22;9758;48.640;8.148;2023-06-24T12:28:59;29.80;38.40
19248;DHT22;9758;48.640;8.148;2023-06-24T12:31:26;29.80;38.30
19248;DHT22;9758;48.640;8.148;2023-06-24T12:33:53;29.80;38.10
19248;DHT22;9758;48.640;8.148;2023-06-24T12:36:28;29.90;38.10
19248;DHT22;9758;48.640;8.148;2023-06-24T12:38:57;29.90;37.60
19248;DHT22;9758;48.640;8.148;2023-06-24T12:41:23;29.90;37.90
19248;DHT22;9758;48.640;8.148;2023-06-24T12:43:52;29.90;37.80
19248;DHT22;9758;48.640;8.148;2023-06-24T12:46:19;29.90;37.70
19248;DHT22;9758;48.640;8.148;2023-06-24T12:48:45;30.00;37.90
19248;DHT22;9758;48.640;8.148;2023-06-24T12:51:12;30.00;37.80
19248;DHT22;9758;48.640;8.148;2023-06-24T12:53:39;30.10;37.90
19248;DHT22;9758;48.640;8.148;2023-06-24T12:56:07;30.10;37.70
19248;DHT22;9758;48.640;8.148;2023-06-24T12:58:34;30.20;37.60
19248;DHT22;9758;48.640;8.148;2023-06-24T13:01:00;30.20;37.40
19248;DHT22;9758;48.640;8.148;2023-06-24T13:03:27;30.20;36.70
19248;DHT22;9758;48.640;8.148;2023-06-24T13:05:54;30.20;37.00
19248;DHT22;9758;48.640;8.148;2023-06-24T13:08:21;30.20;37.10
19248;DHT22;9758;48.640;8.148;2023-06-24T13:10:47;30.20;37.10
19248;DHT22;9758;48.640;8.148;2023-06-24T13:13:15;30.20;37.00
19248;DHT22;9758;48.640;8.148;2023-06-24T13:15:42;30.30;36.70
19248;DHT22;9758;48.640;8.148;2023-06-24T13:18:09;30.30;36.90
19248;DHT22;9758;48.640;8.148;2023-06-24T13:20:35;30.40;36.90
19248;DHT22;9758;48.640;8.148;2023-06-24T13:23:02;30.40;36.70
19248;DHT22;9758;48.640;8.148;2023-06-24T13:25:29;30.50;36.70
19248;DHT22;9758;48.640;8.148;2023-06-24T13:27:57;30.50;36.90
19248;DHT22;9758;48.640;8.148;2023-06-24T13:30:25;30.50;36.20
19248;DHT22;9758;48.640;8.148;2023-06-24T13:32:51;30.60;36.70
19248;DHT22;9758;48.640;8.148;2023-06-24T13:35:18;30.60;36.70
19248;DHT22;9758;48.640;8.148;2023-06-24T13:37:45;30.70;36.70
19248;DHT22;9758;48.640;8.148;2023-06-24T13:40:12;30.70;35.80
19248;DHT22;9758;48.640;8.148;2023-06-24T13:42:39;30.70;36.30
19248;DHT22;9758;48.640;8.148;2023-06-24T13:45:06;30.70;36.20
19248;DHT22;9758;48.640;8.148;2023-06-24T13:47:35;30.80;36.30
19248;DHT22;9758;48.640;8.148;2023-06-24T13:50:02;30.80;36.20
19248;DHT22;9758;48.640;8.148;2023-06-24T13:52:29;30.80;36.10
19248;DHT22;9758;48.640;8.148;2023-06-24T13:54:56;30.80;36.20
19248;DHT22;9758;48.640;8.148;2023-06-24T13:57:23;30.90;36.20
19248;DHT22;9758;48.640;8.148;2023-06-24T13:59:49;31.00;36.20
19248;DHT22;9758;48.640;8.148;2023-06-24T14:02:16;31.10;36.20
19248;DHT22;9758;48.640;8.148;2023-06-24T14:04:46;31.10;35.80
19248;DHT22;9758;48.640;8.148;2023-06-24T14:07:13;31.10;35.50
19248;DHT22;9758;48.640;8.148;2023-06-24T14:09:40;31.10;35.50
19248;DHT22;9758;48.640;8.148;2023-06-24T14:12:08;31.10;35.50
19248;DHT22;9758;48.640;8.148;2023-06-24T14:14:35;31.10;35.60
19248;DHT22;9758;48.640;8.148;2023-06-24T14:17:03;31.20;35.90
19248;DHT22;9758;48.640;8.148;2023-06-24T14:19:34;31.20;35.30
19248;DHT22;9758;48.640;8.148;2023-06-24T14:22:02;31.20;35.80
19248;DHT22;9758;48.640;8.148;2023-06-24T14:24:29;31.20;35.40
19248;DHT22;9758;48.640;8.148;2023-06-24T14:26:56;31.30;35.30
19248;DHT22;9758;48.640;8.148;2023-06-24T14:29:22;31.30;35.00
19248;DHT22;9758;48.640;8.148;2023-06-24T14:31:49;31.20;35.20
19248;DHT22;9758;48.640;8.148;2023-06-24T14:34:16;31.30;35.20
19248;DHT22;9758;48.640;8.148;2023-06-24T14:36:43;31.30;35.40
19248;DHT22;9758;48.640;8.148;2023-06-24T14:39:14;31.30;35.30
19248;DHT22;9758;48.640;8.148;2023-06-24T14:41:41;31.40;34.70
19248;DHT22;9758;48.640;8.148;2023-06-24T14:44:08;31.40;35.00
19248;DHT22;9758;48.640;8.148;2023-06-24T14:46:34;31.50;35.20
19248;DHT22;9758;48.640;8.148;2023-06-24T14:49:01;31.50;33.80
19248;DHT22;9758;48.640;8.148;2023-06-24T14:51:28;31.50;34.70
19248;DHT22;9758;48.640;8.148;2023-06-24T14:53:55;31.50;34.40
19248;DHT22;9758;48.640;8.148;2023-06-24T14:56:23;31.40;34.80
19248;DHT22;9758;48.640;8.148;2023-06-24T14:58:50;31.50;35.00
19248;DHT22;9758;48.640;8.148;2023-06-24T15:01:17;31.50;35.00
19248;DHT22;9758;48.640;8.148;2023-06-24T15:03:44;31.60;34.60
19248;DHT22;9758;48.640;8.148;2023-06-24T15:06:10;31.70;34.60
19248;DHT22;9758;48.640;8.148;2023-06-24T15:08:37;31.70;34.50
19248;DHT22;9758;48.640;8.148;2023-06-24T15:11:04;31.70;34.60
19248;DHT22;9758;48.640;8.148;2023-06-24T15:13:32;31.70;34.60
19248;DHT22;9758;48.640;8.148;2023-06-24T15:15:59;31.80;34.60
19248;DHT22;9758;48.640;8.148;2023-06-24T15:18:25;31.80;34.60
19248;DHT22;9758;48.640;8.148;2023-06-24T15:20:52;31.90;34.70
19248;DHT22;9758;48.640;8.148;2023-06-24T15:23:20;32.00;34.20
19248;DHT22;9758;48.640;8.148;2023-06-24T15:25:47;32.10;34.30
19248;DHT22;9758;48.640;8.148;2023-06-24T15:28:15;32.10;34.40
19248;DHT22;9758;48.640;8.148;2023-06-24T15:30:43;32.10;34.10
19248;DHT22;9758;48.640;8.148;2023-06-24T15:33:10;32.10;33.70
19248;DHT22;9758;48.640;8.148;2023-06-24T15:35:37;32.10;34.00
19248;DHT22;9758;48.640;8.148;2023-06-24T15:38:04;32.20;34.30
19248;DHT22;9758;48.640;8.148;2023-06-24T15:40:30;32.40;33.80
19248;DHT22;9758;48.640;8.148;2023-06-24T15:42:57;32.60;33.90
19248;DHT22;9758;48.640;8.148;2023-06-24T15:45:24;33.00;34.00
19248;DHT22;9758;48.640;8.148;2023-06-24T15:47:52;33.50;33.80
19248;DHT22;9758;48.640;8.148;2023-06-24T15:50:19;34.20;33.90
19248;DHT22;9758;48.640;8.148;2023-06-24T15:52:46;35.00;33.50
19248;DHT22;9758;48.640;8.148;2023-06-24T15:55:12;35.60;33.30
19248;DHT22;9758;48.640;8.148;2023-06-24T15:57:39;36.30;33.00